sensor_id;sensor_type;location;lat;lon;timestamp;pressure;altitude;pressure_sealevel;temperature;humidity
72855;BME280;60991;51.278;22.550;2023-07-20T00:01:11;98325.41;;;21.58;59.15
72855;BME280;60991;51.278;22.550;2023-07-20T00:02:41;98336.88;;;21.55;59.27
72855;BME280;60991;51.278;22.550;2023-07-20T00:04:12;98325.41;;;21.58;59.28
72855;BME280;60991;51.278;22.550;2023-07-20T00:05:43;98328.88;;;21.58;59.32
72855;BME280;60991;51.278;22.550;2023-07-20T00:07:13;98323.81;;;21.57;59.21
72855;BME280;60991;51.278;22.550;2023-07-20T00:08:43;98319.88;;;21.54;59.35
72855;BME280;60991;51.278;22.550;2023-07-20T00:10:13;98324.59;;;21.45;59.99
72855;BME280;60991;51.278;22.550;2023-07-20T00:11:50;98329.09;;;21.41;60.23
72855;BME280;60991;51.278;22.550;2023-07-20T00:13:21;98325.59;;;21.40;60.52
72855;BME280;60991;51.278;22.550;2023-07-20T00:14:51;98325.13;;;21.26;60.96
72855;BME280;60991;51.278;22.550;2023-07-20T00:16:22;98329.41;;;21.27;60.68
72855;BME280;60991;51.278;22.550;2023-07-20T00:17:52;98328.72;;;21.30;60.71
72855;BME280;60991;51.278;22.550;2023-07-20T00:19:26;98325.56;;;21.28;61.14
72855;BME280;60991;51.278;22.550;2023-07-20T00:20:57;98323.88;;;21.24;61.34
72855;BME280;60991;51.278;22.550;2023-07-20T00:22:27;98322.47;;;21.18;61.68
72855;BME280;60991;51.278;22.550;2023-07-20T00:23:57;98319.13;;;21.21;61.46
72855;BME280;60991;51.278;22.550;2023-07-20T00:25:28;98315.94;;;21.19;61.78
72855;BME280;60991;51.278;22.550;2023-07-20T00:26:58;98319.84;;;21.09;62.10
72855;BME280;60991;51.278;22.550;2023-07-20T00:28:28;98319.41;;;21.07;62.24
72855;BME280;60991;51.278;22.550;2023-07-20T00:29:58;98326.13;;;21.01;62.54
72855;BME280;60991;51.278;22.550;2023-07-20T00:31:28;98320.81;;;20.92;63.14
72855;BME280;60991;51.278;22.550;2023-07-20T00:32:58;98322.78;;;20.83;63.20
72855;BME280;60991;51.278;22.550;2023-07-20T00:34:29;98315.81;;;20.82;63.39
72855;BME280;60991;51.278;22.550;2023-07-20T00:35:59;98313.75;;;20.79;64.01
72855;BME280;60991;51.278;22.550;2023-07-20T00:37:29;98309.25;;;20.71;64.22
72855;BME280;60991;51.278;22.550;2023-07-20T00:38:59;98311.66;;;20.64;64.50
72855;BME280;60991;51.278;22.550;2023-07-20T00:40:39;98314.44;;;20.55;64.77
72855;BME280;60991;51.278;22.550;2023-07-20T00:42:10;98311.28;;;20.53;65.04
72855;BME280;60991;51.278;22.550;2023-07-20T00:43:40;98309.38;;;20.54;64.92
72855;BME280;60991;51.278;22.550;2023-07-20T00:45:10;98302.75;;;20.51;65.18
72855;BME280;60991;51.278;22.550;2023-07-20T00:46:40;98299.38;;;20.54;64.89
72855;BME280;60991;51.278;22.550;2023-07-20T00:48:11;98307.63;;;20.58;64.83
72855;BME280;60991;51.278;22.550;2023-07-20T00:49:42;98301.09;;;20.59;64.95
72855;BME280;60991;51.278;22.550;2023-07-20T00:51:12;98300.50;;;20.53;65.32
72855;BME280;60991;51.278;22.550;2023-07-20T00:52:43;98303.38;;;20.48;65.16
72855;BME280;60991;51.278;22.550;2023-07-20T00:54:14;98293.13;;;20.42;65.75
72855;BME280;60991;51.278;22.550;2023-07-20T00:55:45;98300.22;;;20.46;65.26
72855;BME280;60991;51.278;22.550;2023-07-20T00:57:15;98291.63;;;20.53;65.33
72855;BME280;60991;51.278;22.550;2023-07-20T00:58:45;98281.81;;;20.48;65.46
72855;BME280;60991;51.278;22.550;2023-07-20T01:00:16;98286.50;;;20.39;65.91
72855;BME280;60991;51.278;22.550;2023-07-20T01:01:47;98277.31;;;20.31;66.46
72855;BME280;60991;51.278;22.550;2023-07-20T01:03:17;98283.53;;;20.23;66.75
72855;BME280;60991;51.278;22.550;2023-07-20T01:04:47;98268.84;;;20.21;66.53
72855;BME280;60991;51.278;22.550;2023-07-20T01:06:44;98277.44;;;20.14;66.99
72855;BME280;60991;51.278;22.550;2023-07-20T01:08:42;98273.94;;;20.14;66.85
72855;BME280;60991;51.278;22.550;2023-07-20T01:10:25;98268.97;;;20.03;67.21
72855;BME280;60991;51.278;22.550;2023-07-20T01:12:08;98265.66;;;19.98;67.73
72855;BME280;60991;51.278;22.550;2023-07-20T01:13:43;98273.13;;;19.92;68.02
72855;BME280;60991;51.278;22.550;2023-07-20T01:15:14;98275.81;;;19.92;68.07
72855;BME280;60991;51.278;22.550;2023-07-20T01:16:44;98285.19;;;19.86;68.45
72855;BME280;60991;51.278;22.550;2023-07-20T01:18:14;98275.13;;;19.75;68.89
72855;BME280;60991;51.278;22.550;2023-07-20T01:19:44;98274.97;;;19.71;69.06
72855;BME280;60991;51.278;22.550;2023-07-20T01:21:21;98276.22;;;19.74;69.20
72855;BME280;60991;51.278;22.550;2023-07-20T01:25:24;98281.13;;;19.80;68.90
72855;BME280;60991;51.278;22.550;2023-07-20T01:29:17;98271.81;;;19.69;69.54
72855;BME280;60991;51.278;22.550;2023-07-20T01:30:59;98269.13;;;19.69;69.79
72855;BME280;60991;51.278;22.550;2023-07-20T01:32:34;98269.41;;;19.76;69.29
72855;BME280;60991;51.278;22.550;2023-07-20T01:34:05;98264.16;;;19.80;69.50
72855;BME280;60991;51.278;22.550;2023-07-20T01:35:38;98268.75;;;19.79;69.26
72855;BME280;60991;51.278;22.550;2023-07-20T01:37:10;98266.16;;;19.91;68.95
72855;BME280;60991;51.278;22.550;2023-07-20T01:38:40;98260.09;;;20.03;68.29
72855;BME280;60991;51.278;22.550;2023-07-20T01:40:13;98260.00;;;20.12;68.13
72855;BME280;60991;51.278;22.550;2023-07-20T01:41:45;98263.13;;;20.22;67.70
72855;BME280;60991;51.278;22.550;2023-07-20T01:43:15;98265.88;;;20.34;67.26
72855;BME280;60991;51.278;22.550;2023-07-20T01:44:46;98264.72;;;20.44;67.00
72855;BME280;60991;51.278;22.550;2023-07-20T01:46:16;98270.44;;;20.43;66.88
72855;BME280;60991;51.278;22.550;2023-07-20T01:47:46;98273.81;;;20.39;67.30
72855;BME280;60991;51.278;22.550;2023-07-20T01:49:17;98270.53;;;20.25;67.71
72855;BME280;60991;51.278;22.550;2023-07-20T01:50:47;98276.13;;;20.20;67.95
72855;BME280;60991;51.278;22.550;2023-07-20T01:52:17;98284.88;;;20.17;68.02
72855;BME280;60991;51.278;22.550;2023-07-20T01:53:47;98293.75;;;20.18;67.97
72855;BME280;60991;51.278;22.550;2023-07-20T01:55:17;98297.56;;;20.17;68.07
72855;BME280;60991;51.278;22.550;2023-07-20T01:56:47;98302.41;;;20.23;67.62
72855;BME280;60991;51.278;22.550;2023-07-20T01:58:18;98299.06;;;20.26;67.50
72855;BME280;60991;51.278;22.550;2023-07-20T01:59:48;98306.63;;;20.33;67.09
72855;BME280;60991;51.278;22.550;2023-07-20T02:01:18;98301.56;;;20.40;66.81
72855;BME280;60991;51.278;22.550;2023-07-20T02:02:48;98302.59;;;20.48;66.22
72855;BME280;60991;51.278;22.550;2023-07-20T02:04:18;98297.22;;;20.48;65.96
72855;BME280;60991;51.278;22.550;2023-07-20T02:05:49;98303.56;;;20.43;66.14
72855;BME280;60991;51.278;22.550;2023-07-20T02:07:19;98307.91;;;20.35;66.28
72855;BME280;60991;51.278;22.550;2023-07-20T02:08:49;98303.66;;;20.26;66.26
72855;BME280;60991;51.278;22.550;2023-07-20T02:10:19;98307.88;;;20.15;66.70
72855;BME280;60991;51.278;22.550;2023-07-20T02:11:50;98311.72;;;20.05;67.04
72855;BME280;60991;51.278;22.550;2023-07-20T02:13:20;98310.19;;;19.95;67.30
72855;BME280;60991;51.278;22.550;2023-07-20T02:14:50;98315.28;;;19.88;67.61
72855;BME280;60991;51.278;22.550;2023-07-20T02:16:20;98305.19;;;19.85;67.78
72855;BME280;60991;51.278;22.550;2023-07-20T02:17:50;98312.47;;;19.85;67.75
72855;BME280;60991;51.278;22.550;2023-07-20T02:19:21;98313.28;;;19.77;67.43
72855;BME280;60991;51.278;22.550;2023-07-20T02:20:53;98314.72;;;19.74;67.87
72855;BME280;60991;51.278;22.550;2023-07-20T02:22:23;98310.63;;;19.68;67.87
72855;BME280;60991;51.278;22.550;2023-07-20T02:23:53;98301.31;;;19.57;68.49
72855;BME280;60991;51.278;22.550;2023-07-20T02:25:24;98303.56;;;19.55;68.56
72855;BME280;60991;51.278;22.550;2023-07-20T02:26:54;98300.41;;;19.44;69.05
72855;BME280;60991;51.278;22.550;2023-07-20T02:28:24;98302.47;;;19.38;69.55
72855;BME280;60991;51.278;22.550;2023-07-20T02:29:54;98294.06;;;19.40;69.50
72855;BME280;60991;51.278;22.550;2023-07-20T02:31:24;98299.28;;;19.45;69.37
72855;BME280;60991;51.278;22.550;2023-07-20T02:32:55;98292.16;;;19.41;69.79
72855;BME280;60991;51.278;22.550;2023-07-20T02:34:25;98295.50;;;19.37;70.10
72855;BME280;60991;51.278;22.550;2023-07-20T02:35:55;98300.56;;;19.30;70.16
72855;BME280;60991;51.278;22.550;2023-07-20T02:37:25;98290.81;;;19.26;70.54
72855;BME280;60991;51.278;22.550;2023-07-20T02:38:55;98296.66;;;19.28;70.38
72855;BME280;60991;51.278;22.550;2023-07-20T02:40:26;98292.06;;;19.28;70.51
72855;BME280;60991;51.278;22.550;2023-07-20T02:41:56;98301.19;;;19.36;70.43
72855;BME280;60991;51.278;22.550;2023-07-20T02:43:26;98290.44;;;19.45;70.03
72855;BME280;60991;51.278;22.550;2023-07-20T02:44:56;98291.19;;;19.54;69.47
72855;BME280;60991;51.278;22.550;2023-07-20T02:46:26;98281.19;;;19.63;69.31
72855;BME280;60991;51.278;22.550;2023-07-20T02:47:57;98288.75;;;19.69;68.91
72855;BME280;60991;51.278;22.550;2023-07-20T02:49:27;98285.59;;;19.67;68.99
72855;BME280;60991;51.278;22.550;2023-07-20T02:50:58;98281.63;;;19.74;68.79
72855;BME280;60991;51.278;22.550;2023-07-20T02:52:28;98289.34;;;19.84;68.52
72855;BME280;60991;51.278;22.550;2023-07-20T02:53:58;98289.94;;;19.89;68.21
72855;BME280;60991;51.278;22.550;2023-07-20T02:55:29;98293.72;;;19.97;68.08
72855;BME280;60991;51.278;22.550;2023-07-20T02:56:59;98282.47;;;19.95;68.10
72855;BME280;60991;51.278;22.550;2023-07-20T02:58:29;98280.50;;;20.04;67.83
72855;BME280;60991;51.278;22.550;2023-07-20T02:59:59;98280.78;;;20.11;67.33
72855;BME280;60991;51.278;22.550;2023-07-20T03:01:29;98288.34;;;20.18;67.13
72855;BME280;60991;51.278;22.550;2023-07-20T03:03:00;98301.63;;;20.23;67.12
72855;BME280;60991;51.278;22.550;2023-07-20T03:04:30;98308.25;;;20.25;67.06
72855;BME280;60991;51.278;22.550;2023-07-20T03:06:00;98308.41;;;20.29;67.07
72855;BME280;60991;51.278;22.550;2023-07-20T03:07:30;98308.22;;;20.34;66.75
72855;BME280;60991;51.278;22.550;2023-07-20T03:09:01;98305.03;;;20.41;66.56
72855;BME280;60991;51.278;22.550;2023-07-20T03:10:31;98300.59;;;20.36;66.59
72855;BME280;60991;51.278;22.550;2023-07-20T03:12:01;98302.00;;;20.42;66.37
72855;BME280;60991;51.278;22.550;2023-07-20T03:13:32;98304.38;;;20.44;66.14
72855;BME280;60991;51.278;22.550;2023-07-20T03:15:03;98300.56;;;20.45;66.14
72855;BME280;60991;51.278;22.550;2023-07-20T03:16:33;98300.38;;;20.50;66.05
72855;BME280;60991;51.278;22.550;2023-07-20T03:18:03;98288.94;;;20.53;66.01
72855;BME280;60991;51.278;22.550;2023-07-20T03:19:33;98292.41;;;20.53;65.72
72855;BME280;60991;51.278;22.550;2023-07-20T03:21:04;98295.09;;;20.53;65.88
72855;BME280;60991;51.278;22.550;2023-07-20T03:22:35;98290.97;;;20.56;65.72
72855;BME280;60991;51.278;22.550;2023-07-20T03:24:05;98289.06;;;20.56;65.64
72855;BME280;60991;51.278;22.550;2023-07-20T03:25:35;98283.78;;;20.60;65.41
72855;BME280;60991;51.278;22.550;2023-07-20T03:27:06;98295.72;;;20.59;65.59
72855;BME280;60991;51.278;22.550;2023-07-20T03:28:37;98291.09;;;20.59;65.77
72855;BME280;60991;51.278;22.550;2023-07-20T03:30:07;98294.78;;;20.55;66.05
72855;BME280;60991;51.278;22.550;2023-07-20T03:31:38;98296.69;;;20.54;65.92
72855;BME280;60991;51.278;22.550;2023-07-20T03:33:08;98299.06;;;20.56;65.98
72855;BME280;60991;51.278;22.550;2023-07-20T03:34:38;98287.25;;;20.60;65.70
72855;BME280;60991;51.278;22.550;2023-07-20T03:36:08;98293.44;;;20.61;65.75
72855;BME280;60991;51.278;22.550;2023-07-20T03:37:38;98285.81;;;20.63;65.67
72855;BME280;60991;51.278;22.550;2023-07-20T03:39:09;98291.69;;;20.65;65.85
72855;BME280;60991;51.278;22.550;2023-07-20T03:40:39;98285.44;;;20.52;66.26
72855;BME280;60991;51.278;22.550;2023-07-20T03:42:09;98283.59;;;20.44;66.73
72855;BME280;60991;51.278;22.550;2023-07-20T03:43:39;98283.81;;;20.39;67.02
72855;BME280;60991;51.278;22.550;2023-07-20T03:45:09;98280.34;;;20.30;67.30
72855;BME280;60991;51.278;22.550;2023-07-20T03:46:40;98285.19;;;20.16;67.66
72855;BME280;60991;51.278;22.550;2023-07-20T03:48:10;98282.06;;;20.05;67.93
72855;BME280;60991;51.278;22.550;2023-07-20T03:49:40;98281.16;;;20.01;68.22
72855;BME280;60991;51.278;22.550;2023-07-20T03:51:10;98286.09;;;19.99;68.40
72855;BME280;60991;51.278;22.550;2023-07-20T03:52:41;98288.03;;;19.90;68.94
72855;BME280;60991;51.278;22.550;2023-07-20T03:54:11;98282.00;;;19.93;68.87
72855;BME280;60991;51.278;22.550;2023-07-20T03:55:44;98290.53;;;19.95;68.81
72855;BME280;60991;51.278;22.550;2023-07-20T03:57:14;98291.00;;;19.97;68.67
72855;BME280;60991;51.278;22.550;2023-07-20T03:58:44;98282.13;;;19.96;68.79
72855;BME280;60991;51.278;22.550;2023-07-20T04:00:15;98278.16;;;20.02;68.64
72855;BME280;60991;51.278;22.550;2023-07-20T04:01:45;98273.81;;;20.10;68.19
72855;BME280;60991;51.278;22.550;2023-07-20T04:03:16;98275.66;;;20.18;68.00
72855;BME280;60991;51.278;22.550;2023-07-20T04:04:46;98280.19;;;20.26;67.79
72855;BME280;60991;51.278;22.550;2023-07-20T04:06:16;98272.25;;;20.30;67.68
72855;BME280;60991;51.278;22.550;2023-07-20T04:07:46;98279.03;;;20.36;67.66
72855;BME280;60991;51.278;22.550;2023-07-20T04:09:17;98276.19;;;20.32;67.93
72855;BME280;60991;51.278;22.550;2023-07-20T04:10:47;98282.56;;;20.36;67.69
72855;BME280;60991;51.278;22.550;2023-07-20T04:12:17;98279.69;;;20.33;67.76
72855;BME280;60991;51.278;22.550;2023-07-20T04:13:47;98278.25;;;20.35;67.78
72855;BME280;60991;51.278;22.550;2023-07-20T04:15:17;98289.03;;;20.35;67.88
72855;BME280;60991;51.278;22.550;2023-07-20T04:16:48;98289.03;;;20.35;68.02
72855;BME280;60991;51.278;22.550;2023-07-20T04:18:18;98288.56;;;20.33;68.24
72855;BME280;60991;51.278;22.550;2023-07-20T04:19:48;98285.59;;;20.26;68.55
72855;BME280;60991;51.278;22.550;2023-07-20T04:21:18;98293.50;;;20.31;68.24
72855;BME280;60991;51.278;22.550;2023-07-20T04:22:49;98302.22;;;20.37;68.14
72855;BME280;60991;51.278;22.550;2023-07-20T04:24:19;98315.22;;;20.26;68.85
72855;BME280;60991;51.278;22.550;2023-07-20T04:25:50;98313.25;;;20.15;69.52
72855;BME280;60991;51.278;22.550;2023-07-20T04:27:20;98311.03;;;20.17;69.27
72855;BME280;60991;51.278;22.550;2023-07-20T04:28:50;98306.56;;;20.21;69.17
72855;BME280;60991;51.278;22.550;2023-07-20T04:30:21;98309.94;;;20.09;69.66
72855;BME280;60991;51.278;22.550;2023-07-20T04:31:51;98310.66;;;19.97;69.97
72855;BME280;60991;51.278;22.550;2023-07-20T04:33:21;98304.00;;;19.95;70.25
72855;BME280;60991;51.278;22.550;2023-07-20T04:34:51;98305.59;;;19.96;70.19
72855;BME280;60991;51.278;22.550;2023-07-20T04:36:22;98306.53;;;20.00;70.20
72855;BME280;60991;51.278;22.550;2023-07-20T04:37:52;98304.16;;;19.98;70.63
72855;BME280;60991;51.278;22.550;2023-07-20T04:39:22;98303.53;;;19.93;70.66
72855;BME280;60991;51.278;22.550;2023-07-20T04:40:52;98315.56;;;19.95;70.68
72855;BME280;60991;51.278;22.550;2023-07-20T04:42:23;98326.81;;;19.97;71.13
72855;BME280;60991;51.278;22.550;2023-07-20T04:43:53;98323.59;;;20.04;70.66
72855;BME280;60991;51.278;22.550;2023-07-20T04:45:23;98319.75;;;20.14;70.28
72855;BME280;60991;51.278;22.550;2023-07-20T04:46:53;98318.81;;;20.10;70.45
72855;BME280;60991;51.278;22.550;2023-07-20T04:48:23;98327.53;;;20.15;69.86
72855;BME280;60991;51.278;22.550;2023-07-20T04:49:54;98331.94;;;20.20;69.82
72855;BME280;60991;51.278;22.550;2023-07-20T04:51:24;98345.13;;;20.13;69.66
72855;BME280;60991;51.278;22.550;2023-07-20T04:52:54;98354.56;;;19.98;69.97
72855;BME280;60991;51.278;22.550;2023-07-20T04:54:24;98354.56;;;19.89;70.32
72855;BME280;60991;51.278;22.550;2023-07-20T04:55:54;98357.00;;;19.74;70.64
72855;BME280;60991;51.278;22.550;2023-07-20T04:57:25;98370.53;;;19.48;71.55
72855;BME280;60991;51.278;22.550;2023-07-20T04:58:55;98387.19;;;19.24;72.25
72855;BME280;60991;51.278;22.550;2023-07-20T05:00:25;98393.66;;;19.14;72.66
72855;BME280;60991;51.278;22.550;2023-07-20T05:01:55;98385.47;;;19.02;72.88
72855;BME280;60991;51.278;22.550;2023-07-20T05:03:26;98384.97;;;18.83;73.83
72855;BME280;60991;51.278;22.550;2023-07-20T05:04:56;98382.44;;;18.69;74.72
72855;BME280;60991;51.278;22.550;2023-07-20T05:06:26;98391.47;;;18.73;74.53
72855;BME280;60991;51.278;22.550;2023-07-20T05:07:56;98389.56;;;18.74;74.41
72855;BME280;60991;51.278;22.550;2023-07-20T05:09:26;98390.03;;;18.76;74.75
72855;BME280;60991;51.278;22.550;2023-07-20T05:10:57;98380.06;;;18.67;75.09
72855;BME280;60991;51.278;22.550;2023-07-20T05:12:27;98374.00;;;18.53;76.10
72855;BME280;60991;51.278;22.550;2023-07-20T05:13:57;98386.81;;;18.48;76.26
72855;BME280;60991;51.278;22.550;2023-07-20T05:15:27;98386.19;;;18.51;76.48
72855;BME280;60991;51.278;22.550;2023-07-20T05:16:58;98385.25;;;18.55;76.43
72855;BME280;60991;51.278;22.550;2023-07-20T05:18:28;98390.13;;;18.53;76.68
72855;BME280;60991;51.278;22.550;2023-07-20T05:19:58;98387.47;;;18.53;76.82
72855;BME280;60991;51.278;22.550;2023-07-20T05:21:28;98390.44;;;18.52;77.09
72855;BME280;60991;51.278;22.550;2023-07-20T05:22:59;98381.28;;;18.53;77.01
72855;BME280;60991;51.278;22.550;2023-07-20T05:24:29;98382.72;;;18.59;77.07
72855;BME280;60991;51.278;22.550;2023-07-20T05:25:59;98379.44;;;18.71;76.92
72855;BME280;60991;51.278;22.550;2023-07-20T05:27:29;98372.47;;;18.78;76.90
72855;BME280;60991;51.278;22.550;2023-07-20T05:29:00;98385.91;;;18.78;76.83
72855;BME280;60991;51.278;22.550;2023-07-20T05:30:30;98390.69;;;18.73;77.22
72855;BME280;60991;51.278;22.550;2023-07-20T05:32:00;98378.81;;;18.82;76.98
72855;BME280;60991;51.278;22.550;2023-07-20T05:33:30;98389.25;;;18.84;77.03
72855;BME280;60991;51.278;22.550;2023-07-20T05:35:01;98399.38;;;18.78;77.27
72855;BME280;60991;51.278;22.550;2023-07-20T05:36:31;98399.50;;;18.64;77.61
72855;BME280;60991;51.278;22.550;2023-07-20T05:38:01;98395.88;;;18.69;77.70
72855;BME280;60991;51.278;22.550;2023-07-20T05:39:34;98401.75;;;18.71;77.73
72855;BME280;60991;51.278;22.550;2023-07-20T05:41:04;98398.41;;;18.65;77.69
72855;BME280;60991;51.278;22.550;2023-07-20T05:42:35;98396.94;;;18.51;77.60
72855;BME280;60991;51.278;22.550;2023-07-20T05:44:05;98400.25;;;18.48;77.48
72855;BME280;60991;51.278;22.550;2023-07-20T05:45:35;98389.63;;;18.43;77.99
72855;BME280;60991;51.278;22.550;2023-07-20T05:47:05;98392.97;;;18.48;77.32
72855;BME280;60991;51.278;22.550;2023-07-20T05:48:36;98388.69;;;18.47;76.88
72855;BME280;60991;51.278;22.550;2023-07-20T05:50:06;98393.63;;;18.54;76.41
72855;BME280;60991;51.278;22.550;2023-07-20T05:51:36;98400.72;;;18.50;76.25
72855;BME280;60991;51.278;22.550;2023-07-20T05:53:07;98398.78;;;18.42;76.07
72855;BME280;60991;51.278;22.550;2023-07-20T05:54:37;98396.44;;;18.49;75.59
72855;BME280;60991;51.278;22.550;2023-07-20T05:56:07;98397.25;;;18.58;74.99
72855;BME280;60991;51.278;22.550;2023-07-20T05:57:37;98395.06;;;18.60;74.44
72855;BME280;60991;51.278;22.550;2023-07-20T05:59:07;98395.34;;;18.58;74.17
72855;BME280;60991;51.278;22.550;2023-07-20T06:00:38;98395.22;;;18.55;74.33
72855;BME280;60991;51.278;22.550;2023-07-20T06:02:08;98389.66;;;18.51;73.92
72855;BME280;60991;51.278;22.550;2023-07-20T06:03:38;98388.03;;;18.42;74.16
72855;BME280;60991;51.278;22.550;2023-07-20T06:05:08;98390.72;;;18.42;74.02
72855;BME280;60991;51.278;22.550;2023-07-20T06:06:38;98390.63;;;18.55;74.00
72855;BME280;60991;51.278;22.550;2023-07-20T06:08:09;98400.56;;;18.46;73.09
72855;BME280;60991;51.278;22.550;2023-07-20T06:09:39;98399.28;;;18.44;72.33
72855;BME280;60991;51.278;22.550;2023-07-20T06:11:10;98411.44;;;18.32;71.78
72855;BME280;60991;51.278;22.550;2023-07-20T06:12:40;98417.97;;;18.09;71.45
72855;BME280;60991;51.278;22.550;2023-07-20T06:14:10;98420.75;;;17.95;71.89
72855;BME280;60991;51.278;22.550;2023-07-20T06:15:40;98419.91;;;17.86;72.35
72855;BME280;60991;51.278;22.550;2023-07-20T06:17:11;98430.16;;;17.84;72.23
72855;BME280;60991;51.278;22.550;2023-07-20T06:18:41;98423.78;;;17.72;72.70
72855;BME280;60991;51.278;22.550;2023-07-20T06:20:11;98429.47;;;17.70;73.04
72855;BME280;60991;51.278;22.550;2023-07-20T06:21:41;98419.81;;;17.69;72.64
72855;BME280;60991;51.278;22.550;2023-07-20T06:23:12;98419.63;;;17.65;72.30
72855;BME280;60991;51.278;22.550;2023-07-20T06:24:42;98427.84;;;17.47;72.05
72855;BME280;60991;51.278;22.550;2023-07-20T06:26:12;98449.69;;;17.54;72.49
72855;BME280;60991;51.278;22.550;2023-07-20T06:27:42;98458.78;;;17.44;72.29
72855;BME280;60991;51.278;22.550;2023-07-20T06:29:13;98471.88;;;17.23;73.04
72855;BME280;60991;51.278;22.550;2023-07-20T06:30:43;98476.19;;;17.11;73.46
72855;BME280;60991;51.278;22.550;2023-07-20T06:32:13;98485.06;;;16.98;73.78
72855;BME280;60991;51.278;22.550;2023-07-20T06:33:43;98486.03;;;17.02;74.00
72855;BME280;60991;51.278;22.550;2023-07-20T06:35:15;98482.34;;;17.11;73.84
72855;BME280;60991;51.278;22.550;2023-07-20T06:36:46;98474.78;;;17.13;73.86
72855;BME280;60991;51.278;22.550;2023-07-20T06:38:16;98480.09;;;17.27;73.83
72855;BME280;60991;51.278;22.550;2023-07-20T06:39:46;98464.88;;;17.36;73.33
72855;BME280;60991;51.278;22.550;2023-07-20T06:41:16;98445.81;;;17.38;72.89
72855;BME280;60991;51.278;22.550;2023-07-20T06:42:46;98440.19;;;17.48;72.66
72855;BME280;60991;51.278;22.550;2023-07-20T06:44:17;98441.72;;;17.62;72.58
72855;BME280;60991;51.278;22.550;2023-07-20T06:45:53;98441.28;;;17.69;72.93
72855;BME280;60991;51.278;22.550;2023-07-20T06:47:24;98448.47;;;17.82;72.15
72855;BME280;60991;51.278;22.550;2023-07-20T06:48:54;98454.09;;;17.94;71.81
72855;BME280;60991;51.278;22.550;2023-07-20T06:50:24;98450.31;;;18.04;71.61
72855;BME280;60991;51.278;22.550;2023-07-20T06:51:54;98443.72;;;18.10;71.22
72855;BME280;60991;51.278;22.550;2023-07-20T06:53:25;98445.34;;;18.20;70.33
72855;BME280;60991;51.278;22.550;2023-07-20T06:54:55;98449.19;;;18.27;70.21
72855;BME280;60991;51.278;22.550;2023-07-20T06:56:25;98456.50;;;18.36;69.60
72855;BME280;60991;51.278;22.550;2023-07-20T06:57:55;98452.53;;;18.42;69.22
72855;BME280;60991;51.278;22.550;2023-07-20T06:59:25;98448.47;;;18.53;69.23
72855;BME280;60991;51.278;22.550;2023-07-20T07:00:56;98450.41;;;18.61;69.09
72855;BME280;60991;51.278;22.550;2023-07-20T07:02:26;98449.31;;;18.62;68.23
72855;BME280;60991;51.278;22.550;2023-07-20T07:03:56;98450.28;;;18.66;68.58
72855;BME280;60991;51.278;22.550;2023-07-20T07:05:26;98455.97;;;18.64;68.19
72855;BME280;60991;51.278;22.550;2023-07-20T07:06:56;98450.41;;;18.61;68.21
72855;BME280;60991;51.278;22.550;2023-07-20T07:08:27;98445.00;;;18.52;68.18
72855;BME280;60991;51.278;22.550;2023-07-20T07:09:57;98447.19;;;18.50;68.09
72855;BME280;60991;51.278;22.550;2023-07-20T07:11:27;98459.06;;;18.49;68.67
72855;BME280;60991;51.278;22.550;2023-07-20T07:12:57;98462.19;;;18.43;68.61
72855;BME280;60991;51.278;22.550;2023-07-20T07:14:28;98471.97;;;18.39;68.65
72855;BME280;60991;51.278;22.550;2023-07-20T07:15:58;98470.22;;;18.34;68.99
72855;BME280;60991;51.278;22.550;2023-07-20T07:17:28;98468.66;;;18.33;69.15
72855;BME280;60991;51.278;22.550;2023-07-20T07:18:58;98468.94;;;18.31;69.45
72855;BME280;60991;51.278;22.550;2023-07-20T07:20:29;98463.44;;;18.37;69.42
72855;BME280;60991;51.278;22.550;2023-07-20T07:21:59;98464.38;;;18.41;69.04
72855;BME280;60991;51.278;22.550;2023-07-20T07:23:29;98466.94;;;18.46;69.03
72855;BME280;60991;51.278;22.550;2023-07-20T07:24:59;98470.91;;;18.48;69.03
72855;BME280;60991;51.278;22.550;2023-07-20T07:26:30;98474.06;;;18.50;68.66
72855;BME280;60991;51.278;22.550;2023-07-20T07:28:00;98468.56;;;18.55;68.97
72855;BME280;60991;51.278;22.550;2023-07-20T07:29:30;98462.41;;;18.55;68.66
72855;BME280;60991;51.278;22.550;2023-07-20T07:31:00;98476.94;;;18.54;68.38
72855;BME280;60991;51.278;22.550;2023-07-20T07:32:31;98478.84;;;18.53;68.47
72855;BME280;60991;51.278;22.550;2023-07-20T07:34:02;98487.69;;;18.54;68.75
72855;BME280;60991;51.278;22.550;2023-07-20T07:35:32;98497.47;;;18.50;69.10
72855;BME280;60991;51.278;22.550;2023-07-20T07:37:03;98506.91;;;18.39;69.37
72855;BME280;60991;51.278;22.550;2023-07-20T07:38:34;98526.91;;;18.24;70.11
72855;BME280;60991;51.278;22.550;2023-07-20T07:40:04;98528.94;;;18.18;70.53
72855;BME280;60991;51.278;22.550;2023-07-20T07:41:35;98530.25;;;17.98;71.42
72855;BME280;60991;51.278;22.550;2023-07-20T07:43:05;98531.19;;;18.03;71.59
72855;BME280;60991;51.278;22.550;2023-07-20T07:44:35;98529.38;;;17.89;71.30
72855;BME280;60991;51.278;22.550;2023-07-20T07:46:05;98519.88;;;17.83;71.44
72855;BME280;60991;51.278;22.550;2023-07-20T07:47:36;98521.59;;;17.79;72.14
72855;BME280;60991;51.278;22.550;2023-07-20T07:49:06;98523.53;;;17.87;72.12
72855;BME280;60991;51.278;22.550;2023-07-20T07:50:36;98524.44;;;17.83;72.36
72855;BME280;60991;51.278;22.550;2023-07-20T07:52:06;98519.31;;;17.73;72.46
72855;BME280;60991;51.278;22.550;2023-07-20T07:53:37;98520.50;;;17.80;72.25
72855;BME280;60991;51.278;22.550;2023-07-20T07:55:07;98525.97;;;17.75;71.91
72855;BME280;60991;51.278;22.550;2023-07-20T07:56:37;98532.97;;;17.85;71.90
72855;BME280;60991;51.278;22.550;2023-07-20T07:58:07;98532.88;;;17.90;72.11
72855;BME280;60991;51.278;22.550;2023-07-20T07:59:37;98535.84;;;17.88;72.07